PWSweather.com
Personal Weather Stations
Station Observations

PoschiavoCH

Lat: 46.31962499999999, Lon: 10.066551000000004

Elevation: 3517

Station Type: WH 1080

http://www.meteoposchiavo.com

High Low Average
Temperature 78.0°F25.6°C 45.0°F7.2°C 61.7°F16.5°C
Dew Point 54.4°F12.4°C 38.3°F3.5°C 46.0°F7.8°C
Winds 3.5 mph 5.6 kmh Calm Calm 1.0 mph SE1.6 kmh SE
Wind Gusts 5.8 mph9.3 kmh -- 1.0 mph1.6 kmh
Humidity 85% 29% 60%
Pressure 26.82 in908.2 mb 26.64 in902.1 mb -
Precipitation 0.00 in0.0 mm - -
Hour Temp Dew Point Humidity Winds Wind Gusts Pressure Precip Precip Rate Daily Precip Total
12:00 AM 51.0°F10.6°C 42.6°F5.9°C 73% Calm Calm -- 26.80 in907.6 mb - 0.00 in0.0 mm 0.00 in0.0 mm
12:10 AM 51.0°F10.6°C 41.9°F5.5°C 71% Calm Calm -- 26.80 in907.6 mb - 0.00 in0.0 mm 0.00 in0.0 mm
12:15 AM 51.0°F10.6°C 41.9°F5.5°C 71% Calm Calm -- 26.80 in907.6 mb - 0.00 in0.0 mm 0.00 in0.0 mm
12:20 AM 52.0°F11.1°C 42.9°F6.1°C 71% Calm Calm -- 26.79 in907.2 mb - 0.00 in0.0 mm 0.00 in0.0 mm
12:25 AM 51.0°F10.6°C 42.6°F5.9°C 73% Calm Calm -- 26.80 in907.6 mb - 0.00 in0.0 mm 0.00 in0.0 mm
12:30 AM 51.0°F10.6°C 43.0°F6.1°C 74% Calm Calm -- 26.80 in907.6 mb - 0.00 in0.0 mm 0.00 in0.0 mm
12:35 AM 50.0°F10.0°C 42.4°F5.8°C 75% Calm Calm -- 26.80 in907.6 mb - 0.00 in0.0 mm 0.00 in0.0 mm
12:40 AM 51.0°F10.6°C 42.3°F5.7°C 72% Calm Calm -- 26.80 in907.6 mb - 0.00 in0.0 mm 0.00 in0.0 mm
12:45 AM 50.2°F10.1°C 42.2°F5.7°C 74% Calm Calm -- 26.80 in907.6 mb - 0.00 in0.0 mm 0.00 in0.0 mm
12:50 AM 50.0°F10.0°C 42.4°F5.8°C 75% Calm Calm -- 26.80 in907.6 mb - 0.00 in0.0 mm 0.00 in0.0 mm
12:55 AM 50.0°F10.0°C 41.0°F5.0°C 71% Calm Calm -- 26.80 in907.6 mb - 0.00 in0.0 mm 0.00 in0.0 mm
01:00 AM 51.0°F10.6°C 41.6°F5.3°C 70% 1.2 mph E1.9 kmh E 1.2 mph1.9 kmh 26.80 in907.6 mb - 0.00 in0.0 mm 0.00 in0.0 mm
01:10 AM 50.0°F10.0°C 42.4°F5.8°C 75% Calm Calm -- 26.80 in907.6 mb - 0.00 in0.0 mm 0.00 in0.0 mm
01:15 AM 49.0°F9.4°C 42.1°F5.6°C 77% Calm Calm -- 26.80 in907.6 mb - 0.00 in0.0 mm 0.00 in0.0 mm
01:20 AM 49.0°F9.4°C 41.4°F5.2°C 75% Calm Calm -- 26.80 in907.6 mb - 0.00 in0.0 mm 0.00 in0.0 mm
01:25 AM 49.0°F9.4°C 40.7°F4.8°C 73% Calm Calm -- 26.80 in907.6 mb - 0.00 in0.0 mm 0.00 in0.0 mm
01:30 AM 49.0°F9.4°C 41.4°F5.2°C 75% Calm Calm -- 26.80 in907.6 mb - 0.00 in0.0 mm 0.00 in0.0 mm
01:35 AM 49.0°F9.4°C 42.1°F5.6°C 77% Calm Calm -- 26.80 in907.6 mb - 0.00 in0.0 mm 0.00 in0.0 mm
01:40 AM 49.0°F9.4°C 40.7°F4.8°C 73% Calm Calm -- 26.80 in907.6 mb - 0.00 in0.0 mm 0.00 in0.0 mm
01:45 AM 50.0°F10.0°C 40.6°F4.8°C 70% Calm Calm -- 26.79 in907.2 mb - 0.00 in0.0 mm 0.00 in0.0 mm
01:50 AM 50.0°F10.0°C 42.7°F5.9°C 76% Calm Calm -- 26.80 in907.6 mb - 0.00 in0.0 mm 0.00 in0.0 mm
01:55 AM 49.7°F9.8°C 42.4°F5.8°C 76% Calm Calm -- 26.80 in907.6 mb - 0.00 in0.0 mm 0.00 in0.0 mm
02:00 AM 49.0°F9.4°C 41.8°F5.4°C 76% Calm Calm -- 26.80 in907.6 mb - 0.00 in0.0 mm 0.00 in0.0 mm
02:10 AM 49.0°F9.4°C 41.4°F5.2°C 75% Calm Calm -- 26.81 in907.9 mb - 0.00 in0.0 mm 0.00 in0.0 mm
02:15 AM 49.0°F9.4°C 41.8°F5.4°C 76% Calm Calm -- 26.80 in907.6 mb - 0.00 in0.0 mm 0.00 in0.0 mm
02:20 AM 49.0°F9.4°C 41.8°F5.4°C 76% Calm Calm -- 26.80 in907.6 mb - 0.00 in0.0 mm 0.00 in0.0 mm
02:25 AM 48.2°F9.0°C 41.3°F5.2°C 77% Calm Calm -- 26.80 in907.6 mb - 0.00 in0.0 mm 0.00 in0.0 mm
02:30 AM 48.0°F8.9°C 41.1°F5.1°C 77% Calm Calm -- 26.80 in907.6 mb - 0.00 in0.0 mm 0.00 in0.0 mm
02:35 AM 48.0°F8.9°C 40.5°F4.7°C 75% Calm Calm -- 26.80 in907.6 mb - 0.00 in0.0 mm 0.00 in0.0 mm
02:40 AM 49.0°F9.4°C 41.4°F5.2°C 75% Calm Calm -- 26.80 in907.6 mb - 0.00 in0.0 mm 0.00 in0.0 mm
02:45 AM 48.0°F8.9°C 40.8°F4.9°C 76% Calm Calm -- 26.80 in907.6 mb - 0.00 in0.0 mm 0.00 in0.0 mm
02:50 AM 48.0°F8.9°C 41.1°F5.1°C 77% Calm Calm -- 26.80 in907.6 mb - 0.00 in0.0 mm 0.00 in0.0 mm
02:55 AM 48.0°F8.9°C 40.5°F4.7°C 75% Calm Calm -- 26.80 in907.6 mb - 0.00 in0.0 mm 0.00 in0.0 mm
03:00 AM 47.5°F8.6°C 40.6°F4.8°C 77% Calm Calm -- 26.80 in907.6 mb - 0.00 in0.0 mm 0.00 in0.0 mm
03:10 AM 47.0°F8.3°C 41.1°F5.1°C 80% Calm Calm -- 26.80 in907.6 mb - 0.00 in0.0 mm 0.00 in0.0 mm
03:15 AM 46.0°F7.8°C 40.2°F4.6°C 80% Calm Calm -- 26.80 in907.6 mb - 0.00 in0.0 mm 0.00 in0.0 mm
03:20 AM 47.0°F8.3°C 41.1°F5.1°C 80% Calm Calm -- 26.80 in907.6 mb - 0.00 in0.0 mm 0.00 in0.0 mm
03:25 AM 47.0°F8.3°C 40.8°F4.9°C 79% Calm Calm -- 26.80 in907.6 mb - 0.00 in0.0 mm 0.00 in0.0 mm
03:30 AM 47.0°F8.3°C 40.5°F4.7°C 78% Calm Calm -- 26.79 in907.2 mb - 0.00 in0.0 mm 0.00 in0.0 mm
03:35 AM 47.2°F8.4°C 40.7°F4.8°C 78% Calm Calm -- 26.79 in907.2 mb - 0.00 in0.0 mm 0.00 in0.0 mm
03:40 AM 48.0°F8.9°C 41.1°F5.1°C 77% Calm Calm -- 26.80 in907.6 mb - 0.00 in0.0 mm 0.00 in0.0 mm
03:45 AM 47.0°F8.3°C 40.5°F4.7°C 78% Calm Calm -- 26.80 in907.6 mb - 0.00 in0.0 mm 0.00 in0.0 mm
03:50 AM 47.0°F8.3°C 40.8°F4.9°C 79% Calm Calm -- 26.80 in907.6 mb - 0.00 in0.0 mm 0.00 in0.0 mm
03:55 AM 46.0°F7.8°C 39.9°F4.4°C 79% Calm Calm -- 26.80 in907.6 mb - 0.00 in0.0 mm 0.00 in0.0 mm
04:00 AM 46.0°F7.8°C 40.5°F4.7°C 81% Calm Calm -- 26.80 in907.6 mb - 0.00 in0.0 mm 0.00 in0.0 mm
04:10 AM 46.0°F7.8°C 40.8°F4.9°C 82% Calm Calm -- 26.80 in907.6 mb - 0.00 in0.0 mm 0.00 in0.0 mm
04:15 AM 47.0°F8.3°C 39.5°F4.2°C 75% Calm Calm -- 26.80 in907.6 mb - 0.00 in0.0 mm 0.00 in0.0 mm
04:20 AM 48.0°F8.9°C 38.3°F3.5°C 69% Calm Calm 1.2 mph1.9 kmh 26.80 in907.6 mb - 0.00 in0.0 mm 0.00 in0.0 mm
04:25 AM 48.0°F8.9°C 40.5°F4.7°C 75% Calm Calm -- 26.80 in907.6 mb - 0.00 in0.0 mm 0.00 in0.0 mm
04:30 AM 47.0°F8.3°C 40.2°F4.6°C 77% Calm Calm -- 26.80 in907.6 mb - 0.00 in0.0 mm 0.00 in0.0 mm
04:35 AM 46.6°F8.1°C 40.1°F4.5°C 78% Calm Calm -- 26.80 in907.6 mb - 0.00 in0.0 mm 0.00 in0.0 mm
04:40 AM 46.0°F7.8°C 40.2°F4.6°C 80% Calm Calm -- 26.80 in907.6 mb - 0.00 in0.0 mm 0.00 in0.0 mm
04:45 AM 45.0°F7.2°C 39.8°F4.3°C 82% Calm Calm -- 26.80 in907.6 mb - 0.00 in0.0 mm 0.00 in0.0 mm
04:50 AM 46.0°F7.8°C 40.8°F4.9°C 82% Calm Calm -- 26.80 in907.6 mb - 0.00 in0.0 mm 0.00 in0.0 mm
04:55 AM 46.0°F7.8°C 39.5°F4.2°C 78% Calm Calm -- 26.81 in907.9 mb - 0.00 in0.0 mm 0.00 in0.0 mm
05:00 AM 46.0°F7.8°C 41.1°F5.1°C 83% Calm Calm -- 26.81 in907.9 mb - 0.00 in0.0 mm 0.00 in0.0 mm
05:10 AM 46.0°F7.8°C 40.5°F4.7°C 81% Calm Calm -- 26.81 in907.9 mb - 0.00 in0.0 mm 0.00 in0.0 mm
05:15 AM 45.0°F7.2°C 39.5°F4.2°C 81% Calm Calm -- 26.82 in908.2 mb - 0.00 in0.0 mm 0.00 in0.0 mm
05:20 AM 46.0°F7.8°C 40.5°F4.7°C 81% Calm Calm -- 26.81 in907.9 mb - 0.00 in0.0 mm 0.00 in0.0 mm
05:25 AM 46.0°F7.8°C 39.9°F4.4°C 79% Calm Calm -- 26.81 in907.9 mb - 0.00 in0.0 mm 0.00 in0.0 mm
05:30 AM 45.5°F7.5°C 40.0°F4.4°C 81% Calm Calm -- 26.80 in907.6 mb - 0.00 in0.0 mm 0.00 in0.0 mm
05:35 AM 45.0°F7.2°C 40.1°F4.5°C 83% Calm Calm -- 26.80 in907.6 mb - 0.00 in0.0 mm 0.00 in0.0 mm
05:40 AM 45.0°F7.2°C 40.1°F4.5°C 83% Calm Calm -- 26.81 in907.9 mb - 0.00 in0.0 mm 0.00 in0.0 mm
05:45 AM 46.0°F7.8°C 39.2°F4.0°C 77% Calm Calm 1.2 mph1.9 kmh 26.81 in907.9 mb - 0.00 in0.0 mm 0.00 in0.0 mm
05:50 AM 46.0°F7.8°C 38.9°F3.8°C 76% Calm Calm -- 26.82 in908.2 mb - 0.00 in0.0 mm 0.00 in0.0 mm
05:55 AM 46.0°F7.8°C 39.5°F4.2°C 78% Calm Calm -- 26.81 in907.9 mb - 0.00 in0.0 mm 0.00 in0.0 mm
06:00 AM 45.7°F7.6°C 39.3°F4.1°C 78% Calm Calm -- 26.81 in907.9 mb - 0.00 in0.0 mm 0.00 in0.0 mm
06:10 AM 45.0°F7.2°C 40.8°F4.9°C 85% Calm Calm -- 26.82 in908.2 mb - 0.00 in0.0 mm 0.00 in0.0 mm
06:15 AM 45.0°F7.2°C 40.5°F4.7°C 84% Calm Calm -- 26.81 in907.9 mb - 0.00 in0.0 mm 0.00 in0.0 mm
06:20 AM 46.0°F7.8°C 40.5°F4.7°C 81% Calm Calm -- 26.82 in908.2 mb - 0.00 in0.0 mm 0.00 in0.0 mm
06:25 AM 46.0°F7.8°C 39.9°F4.4°C 79% Calm Calm -- 26.82 in908.2 mb - 0.00 in0.0 mm 0.00 in0.0 mm
06:30 AM 46.0°F7.8°C 39.9°F4.4°C 79% Calm Calm -- 26.82 in908.2 mb - 0.00 in0.0 mm 0.00 in0.0 mm
06:35 AM 46.0°F7.8°C 40.2°F4.6°C 80% Calm Calm -- 26.81 in907.9 mb - 0.00 in0.0 mm 0.00 in0.0 mm
06:40 AM 46.0°F7.8°C 40.2°F4.6°C 80% Calm Calm -- 26.81 in907.9 mb - 0.00 in0.0 mm 0.00 in0.0 mm
06:45 AM 46.0°F7.8°C 41.1°F5.1°C 83% Calm Calm -- 26.80 in907.6 mb - 0.00 in0.0 mm 0.00 in0.0 mm
06:50 AM 46.0°F7.8°C 41.4°F5.2°C 84% Calm Calm -- 26.81 in907.9 mb - 0.00 in0.0 mm 0.00 in0.0 mm
06:55 AM 46.0°F7.8°C 41.4°F5.2°C 84% Calm Calm -- 26.81 in907.9 mb - 0.00 in0.0 mm 0.00 in0.0 mm
07:00 AM 46.0°F7.8°C 41.4°F5.2°C 84% Calm Calm -- 26.81 in907.9 mb - 0.00 in0.0 mm 0.00 in0.0 mm
07:10 AM 47.0°F8.3°C 42.1°F5.6°C 83% Calm Calm -- 26.81 in907.9 mb - 0.00 in0.0 mm 0.00 in0.0 mm
07:15 AM 47.0°F8.3°C 42.7°F5.9°C 85% Calm Calm -- 26.82 in908.2 mb - 0.00 in0.0 mm 0.00 in0.0 mm
07:20 AM 47.0°F8.3°C 42.7°F5.9°C 85% Calm Calm -- 26.81 in907.9 mb - 0.00 in0.0 mm 0.00 in0.0 mm
07:25 AM 46.8°F8.2°C 42.5°F5.8°C 85% Calm Calm -- 26.81 in907.9 mb - 0.00 in0.0 mm 0.00 in0.0 mm
07:30 AM 46.0°F7.8°C 41.7°F5.4°C 85% Calm Calm -- 26.81 in907.9 mb - 0.00 in0.0 mm 0.00 in0.0 mm
07:35 AM 47.0°F8.3°C 42.7°F5.9°C 85% Calm Calm -- 26.80 in907.6 mb - 0.00 in0.0 mm 0.00 in0.0 mm
07:40 AM 51.0°F10.6°C 42.3°F5.7°C 72% Calm Calm -- 26.80 in907.6 mb - 0.00 in0.0 mm 0.00 in0.0 mm
07:45 AM 57.0°F13.9°C 45.7°F7.6°C 66% Calm Calm -- 26.80 in907.6 mb - 0.00 in0.0 mm 0.00 in0.0 mm
07:50 AM 59.2°F15.1°C 44.9°F7.2°C 59% Calm Calm -- 26.80 in907.6 mb - 0.00 in0.0 mm 0.00 in0.0 mm
07:55 AM 60.0°F15.6°C 45.2°F7.3°C 58% Calm Calm -- 26.80 in907.6 mb - 0.00 in0.0 mm 0.00 in0.0 mm
08:00 AM 62.0°F16.7°C 45.2°F7.3°C 54% Calm Calm -- 26.80 in907.6 mb - 0.00 in0.0 mm 0.00 in0.0 mm
08:10 AM 63.0°F17.2°C 45.1°F7.3°C 52% Calm Calm -- 26.80 in907.6 mb - 0.00 in0.0 mm 0.00 in0.0 mm
08:15 AM 66.0°F18.9°C 45.7°F7.6°C 48% Calm Calm -- 26.80 in907.6 mb - 0.00 in0.0 mm 0.00 in0.0 mm
08:20 AM 66.0°F18.9°C 45.2°F7.3°C 47% Calm Calm 1.2 mph1.9 kmh 26.80 in907.6 mb - 0.00 in0.0 mm 0.00 in0.0 mm
08:25 AM 66.0°F18.9°C 44.0°F6.7°C 45% Calm Calm 1.2 mph1.9 kmh 26.79 in907.2 mb - 0.00 in0.0 mm 0.00 in0.0 mm
08:30 AM 66.0°F18.9°C 44.6°F7.0°C 46% Calm Calm -- 26.79 in907.2 mb - 0.00 in0.0 mm 0.00 in0.0 mm
08:35 AM 67.0°F19.4°C 43.1°F6.2°C 42% Calm Calm -- 26.79 in907.2 mb - 0.00 in0.0 mm 0.00 in0.0 mm
08:40 AM 67.0°F19.4°C 43.8°F6.6°C 43% Calm Calm -- 26.79 in907.2 mb - 0.00 in0.0 mm 0.00 in0.0 mm
08:45 AM 68.0°F20.0°C 45.2°F7.3°C 44% Calm Calm -- 26.78 in906.9 mb - 0.00 in0.0 mm 0.00 in0.0 mm
08:50 AM 68.0°F20.0°C 45.3°F7.4°C 44% Calm Calm 1.2 mph1.9 kmh 26.78 in906.9 mb - 0.00 in0.0 mm 0.00 in0.0 mm
08:55 AM 68.0°F20.0°C 47.6°F8.7°C 48% Calm Calm 1.2 mph1.9 kmh 26.78 in906.9 mb - 0.00 in0.0 mm 0.00 in0.0 mm
09:00 AM 70.0°F21.1°C 47.1°F8.4°C 44% Calm Calm 1.2 mph1.9 kmh 26.78 in906.9 mb - 0.00 in0.0 mm 0.00 in0.0 mm
09:10 AM 71.0°F21.7°C 44.8°F7.1°C 39% Calm Calm -- 26.77 in906.5 mb - 0.00 in0.0 mm 0.00 in0.0 mm
09:15 AM 71.7°F22.1°C 43.3°F6.3°C 36% 1.2 mph E1.9 kmh E 1.2 mph1.9 kmh 26.77 in906.5 mb - 0.00 in0.0 mm 0.00 in0.0 mm
09:20 AM 72.0°F22.2°C 42.8°F6.0°C 35% 1.2 mph E1.9 kmh E 1.2 mph1.9 kmh 26.77 in906.5 mb - 0.00 in0.0 mm 0.00 in0.0 mm
09:25 AM 75.0°F23.9°C 44.7°F7.1°C 34% Calm Calm -- 26.77 in906.5 mb - 0.00 in0.0 mm 0.00 in0.0 mm
09:30 AM 75.0°F23.9°C 43.9°F6.6°C 33% Calm Calm -- 26.77 in906.5 mb - 0.00 in0.0 mm 0.00 in0.0 mm
09:35 AM 75.0°F23.9°C 45.5°F7.5°C 35% Calm Calm 1.2 mph1.9 kmh 26.76 in906.2 mb - 0.00 in0.0 mm 0.00 in0.0 mm
09:40 AM 78.0°F25.6°C 43.2°F6.2°C 29% Calm Calm -- 26.76 in906.2 mb - 0.00 in0.0 mm 0.00 in0.0 mm
09:45 AM 78.0°F25.6°C 44.9°F7.2°C 31% Calm Calm -- 26.76 in906.2 mb - 0.00 in0.0 mm 0.00 in0.0 mm
09:50 AM 74.0°F23.3°C 43.1°F6.2°C 33% Calm Calm -- 26.76 in906.2 mb - 0.00 in0.0 mm 0.00 in0.0 mm
09:55 AM 71.0°F21.7°C 45.5°F7.5°C 40% Calm Calm -- 26.76 in906.2 mb - 0.00 in0.0 mm 0.00 in0.0 mm
10:00 AM 73.0°F22.8°C 45.9°F7.7°C 38% Calm Calm -- 26.75 in905.9 mb - 0.00 in0.0 mm 0.00 in0.0 mm
10:10 AM 72.0°F22.2°C 44.3°F6.8°C 37% Calm Calm -- 26.75 in905.9 mb - 0.00 in0.0 mm 0.00 in0.0 mm
10:15 AM 72.0°F22.2°C 43.6°F6.4°C 36% Calm Calm 1.2 mph1.9 kmh 26.75 in905.9 mb - 0.00 in0.0 mm 0.00 in0.0 mm
10:20 AM 72.0°F22.2°C 41.3°F5.2°C 33% 1.2 mph NE1.9 kmh NE 1.2 mph1.9 kmh 26.75 in905.9 mb - 0.00 in0.0 mm 0.00 in0.0 mm
10:25 AM 71.0°F21.7°C 44.8°F7.1°C 39% 1.2 mph NNW1.9 kmh NNW 2.3 mph3.7 kmh 26.75 in905.9 mb - 0.00 in0.0 mm 0.00 in0.0 mm
10:30 AM 72.0°F22.2°C 43.6°F6.4°C 36% 1.2 mph NNE1.9 kmh NNE 1.2 mph1.9 kmh 26.74 in905.5 mb - 0.00 in0.0 mm 0.00 in0.0 mm
10:35 AM 72.0°F22.2°C 45.0°F7.2°C 38% 1.2 mph SE1.9 kmh SE 1.2 mph1.9 kmh 26.74 in905.5 mb - 0.00 in0.0 mm 0.00 in0.0 mm
10:40 AM 71.3°F21.8°C 45.0°F7.2°C 39% Calm Calm 1.2 mph1.9 kmh 26.75 in905.9 mb - 0.00 in0.0 mm 0.00 in0.0 mm
10:45 AM 71.0°F21.7°C 45.5°F7.5°C 40% Calm Calm -- 26.75 in905.9 mb - 0.00 in0.0 mm 0.00 in0.0 mm
10:50 AM 71.0°F21.7°C 44.1°F6.7°C 38% Calm Calm 1.2 mph1.9 kmh 26.74 in905.5 mb - 0.00 in0.0 mm 0.00 in0.0 mm
10:55 AM 71.0°F21.7°C 42.7°F5.9°C 36% 2.3 mph NW3.7 kmh NW 2.3 mph3.7 kmh 26.74 in905.5 mb - 0.00 in0.0 mm 0.00 in0.0 mm
11:00 AM 72.0°F22.2°C 43.6°F6.4°C 36% 1.2 mph N1.9 kmh N 2.3 mph3.7 kmh 26.74 in905.5 mb - 0.00 in0.0 mm 0.00 in0.0 mm
11:10 AM 71.6°F22.0°C 45.3°F7.4°C 39% 1.2 mph NW1.9 kmh NW 2.3 mph3.7 kmh 26.73 in905.2 mb - 0.00 in0.0 mm 0.00 in0.0 mm
11:15 AM 71.0°F21.7°C 44.1°F6.7°C 38% 1.2 mph N1.9 kmh N 2.3 mph3.7 kmh 26.73 in905.2 mb - 0.00 in0.0 mm 0.00 in0.0 mm
11:20 AM 71.0°F21.7°C 44.1°F6.7°C 38% 2.3 mph NNW3.7 kmh NNW 3.5 mph5.6 kmh 26.74 in905.5 mb - 0.00 in0.0 mm 0.00 in0.0 mm
11:25 AM 72.0°F22.2°C 44.3°F6.8°C 37% 2.3 mph NNW3.7 kmh NNW 2.3 mph3.7 kmh 26.73 in905.2 mb - 0.00 in0.0 mm 0.00 in0.0 mm
11:30 AM 73.0°F22.8°C 45.9°F7.7°C 38% 1.2 mph W1.9 kmh W 2.3 mph3.7 kmh 26.73 in905.2 mb - 0.00 in0.0 mm 0.00 in0.0 mm
11:35 AM 72.0°F22.2°C 43.6°F6.4°C 36% 1.2 mph NE1.9 kmh NE 1.2 mph1.9 kmh 26.73 in905.2 mb - 0.00 in0.0 mm 0.00 in0.0 mm
11:40 AM 72.2°F22.3°C 44.5°F6.9°C 37% 1.2 mph NE1.9 kmh NE 3.5 mph5.6 kmh 26.73 in905.2 mb - 0.00 in0.0 mm 0.00 in0.0 mm
11:45 AM 73.0°F22.8°C 46.6°F8.1°C 39% 3.5 mph N5.6 kmh N 3.5 mph5.6 kmh 26.73 in905.2 mb - 0.00 in0.0 mm 0.00 in0.0 mm
11:50 AM 73.0°F22.8°C 44.5°F6.9°C 36% 3.5 mph NW5.6 kmh NW 3.5 mph5.6 kmh 26.72 in904.8 mb - 0.00 in0.0 mm 0.00 in0.0 mm
11:55 AM 73.0°F22.8°C 43.7°F6.5°C 35% 2.3 mph N3.7 kmh N 2.3 mph3.7 kmh 26.72 in904.8 mb - 0.00 in0.0 mm 0.00 in0.0 mm
12:00 PM 73.0°F22.8°C 45.2°F7.3°C 37% Calm Calm 1.2 mph1.9 kmh 26.72 in904.8 mb - 0.00 in0.0 mm 0.00 in0.0 mm
12:10 PM 73.0°F22.8°C 47.9°F8.8°C 41% 1.2 mph NW1.9 kmh NW 2.3 mph3.7 kmh 26.71 in904.5 mb - 0.00 in0.0 mm 0.00 in0.0 mm
12:15 PM 73.0°F22.8°C 45.2°F7.3°C 37% 1.2 mph NW1.9 kmh NW 2.3 mph3.7 kmh 26.71 in904.5 mb - 0.00 in0.0 mm 0.00 in0.0 mm
12:20 PM 74.0°F23.3°C 45.3°F7.4°C 36% 2.3 mph NW3.7 kmh NW 3.5 mph5.6 kmh 26.71 in904.5 mb - 0.00 in0.0 mm 0.00 in0.0 mm
12:25 PM 74.0°F23.3°C 48.1°F8.9°C 40% 2.3 mph NW3.7 kmh NW 3.5 mph5.6 kmh 26.71 in904.5 mb - 0.00 in0.0 mm 0.00 in0.0 mm
12:30 PM 74.0°F23.3°C 46.8°F8.2°C 38% 1.2 mph NW1.9 kmh NW 3.5 mph5.6 kmh 26.71 in904.5 mb - 0.00 in0.0 mm 0.00 in0.0 mm
12:35 PM 73.5°F23.1°C 45.6°F7.6°C 37% 1.2 mph NW1.9 kmh NW 3.5 mph5.6 kmh 26.70 in904.2 mb - 0.00 in0.0 mm 0.00 in0.0 mm
12:40 PM 73.0°F22.8°C 45.2°F7.3°C 37% 2.3 mph NW3.7 kmh NW 3.5 mph5.6 kmh 26.70 in904.2 mb - 0.00 in0.0 mm 0.00 in0.0 mm
12:45 PM 74.0°F23.3°C 46.8°F8.2°C 38% 2.3 mph NNE3.7 kmh NNE 3.5 mph5.6 kmh 26.70 in904.2 mb - 0.00 in0.0 mm 0.00 in0.0 mm
12:50 PM 73.0°F22.8°C 45.9°F7.7°C 38% 3.5 mph W5.6 kmh W 3.5 mph5.6 kmh 26.70 in904.2 mb - 0.00 in0.0 mm 0.00 in0.0 mm
12:55 PM 74.0°F23.3°C 48.1°F8.9°C 40% 2.3 mph N3.7 kmh N 2.3 mph3.7 kmh 26.69 in903.8 mb - 0.00 in0.0 mm 0.00 in0.0 mm
01:00 PM 74.0°F23.3°C 46.8°F8.2°C 38% 2.3 mph W3.7 kmh W 2.3 mph3.7 kmh 26.70 in904.2 mb - 0.00 in0.0 mm 0.00 in0.0 mm
01:10 PM 74.0°F23.3°C 46.8°F8.2°C 38% 2.3 mph NNE3.7 kmh NNE 2.3 mph3.7 kmh 26.69 in903.8 mb - 0.00 in0.0 mm 0.00 in0.0 mm
01:15 PM 74.0°F23.3°C 48.8°F9.3°C 41% 1.2 mph N1.9 kmh N 1.2 mph1.9 kmh 26.70 in904.2 mb - 0.00 in0.0 mm 0.00 in0.0 mm
01:20 PM 74.0°F23.3°C 48.8°F9.3°C 41% 2.3 mph NW3.7 kmh NW 3.5 mph5.6 kmh 26.69 in903.8 mb - 0.00 in0.0 mm 0.00 in0.0 mm
01:25 PM 73.0°F22.8°C 45.2°F7.3°C 37% Calm Calm 1.2 mph1.9 kmh 26.72 in904.8 mb - 0.00 in0.0 mm 0.00 in0.0 mm
01:30 PM 73.8°F23.2°C 49.3°F9.6°C 42% 1.2 mph NE1.9 kmh NE 2.3 mph3.7 kmh 26.70 in904.2 mb - 0.00 in0.0 mm 0.00 in0.0 mm
01:35 PM 74.0°F23.3°C 50.1°F10.1°C 43% 1.2 mph NE1.9 kmh NE 2.3 mph3.7 kmh 26.70 in904.2 mb - 0.00 in0.0 mm 0.00 in0.0 mm
01:40 PM 74.0°F23.3°C 47.5°F8.6°C 39% 3.5 mph WNW5.6 kmh WNW 3.5 mph5.6 kmh 26.70 in904.2 mb - 0.00 in0.0 mm 0.00 in0.0 mm
01:45 PM 75.0°F23.9°C 49.7°F9.8°C 41% 3.5 mph NNW5.6 kmh NNW 3.5 mph5.6 kmh 26.69 in903.8 mb - 0.00 in0.0 mm 0.00 in0.0 mm
01:50 PM 75.0°F23.9°C 46.2°F7.9°C 36% 2.3 mph N3.7 kmh N 2.3 mph3.7 kmh 26.69 in903.8 mb - 0.00 in0.0 mm 0.00 in0.0 mm
01:55 PM 75.0°F23.9°C 50.3°F10.2°C 42% 1.2 mph N1.9 kmh N 1.2 mph1.9 kmh 26.69 in903.8 mb - 0.00 in0.0 mm 0.00 in0.0 mm
02:00 PM 75.0°F23.9°C 50.3°F10.2°C 42% 1.2 mph N1.9 kmh N 2.3 mph3.7 kmh 26.69 in903.8 mb - 0.00 in0.0 mm 0.00 in0.0 mm
02:10 PM 75.0°F23.9°C 50.3°F10.2°C 42% 2.3 mph WSW3.7 kmh WSW 3.5 mph5.6 kmh 26.69 in903.8 mb - 0.00 in0.0 mm 0.00 in0.0 mm
02:15 PM 75.0°F23.9°C 49.7°F9.8°C 41% 2.3 mph N3.7 kmh N 3.5 mph5.6 kmh 26.68 in903.5 mb - 0.00 in0.0 mm 0.00 in0.0 mm
02:20 PM 75.0°F23.9°C 49.0°F9.4°C 40% 2.3 mph N3.7 kmh N 2.3 mph3.7 kmh 26.68 in903.5 mb - 0.00 in0.0 mm 0.00 in0.0 mm
02:25 PM 75.0°F23.9°C 51.0°F10.6°C 43% 2.3 mph NNE3.7 kmh NNE 3.5 mph5.6 kmh 26.68 in903.5 mb - 0.00 in0.0 mm 0.00 in0.0 mm
02:30 PM 75.0°F23.9°C 51.0°F10.6°C 43% 2.3 mph NNE3.7 kmh NNE 3.5 mph5.6 kmh 26.68 in903.5 mb - 0.00 in0.0 mm 0.00 in0.0 mm
02:35 PM 76.0°F24.4°C 49.9°F9.9°C 40% 2.3 mph W3.7 kmh W 3.5 mph5.6 kmh 26.68 in903.5 mb - 0.00 in0.0 mm 0.00 in0.0 mm
02:40 PM 75.0°F23.9°C 47.7°F8.7°C 38% 2.3 mph NW3.7 kmh NW 3.5 mph5.6 kmh 26.68 in903.5 mb - 0.00 in0.0 mm 0.00 in0.0 mm
02:45 PM 76.0°F24.4°C 50.6°F10.3°C 41% 2.3 mph W3.7 kmh W 3.5 mph5.6 kmh 26.68 in903.5 mb - 0.00 in0.0 mm 0.00 in0.0 mm
02:50 PM 76.0°F24.4°C 48.6°F9.2°C 38% 2.3 mph WNW3.7 kmh WNW 3.5 mph5.6 kmh 26.67 in903.2 mb - 0.00 in0.0 mm 0.00 in0.0 mm
02:55 PM 75.6°F24.2°C 48.2°F9.0°C 38% 1.2 mph WNW1.9 kmh WNW 3.5 mph5.6 kmh 26.67 in903.2 mb - 0.00 in0.0 mm 0.00 in0.0 mm
03:00 PM 75.0°F23.9°C 47.7°F8.7°C 38% 1.2 mph WNW1.9 kmh WNW 2.3 mph3.7 kmh 26.67 in903.2 mb - 0.00 in0.0 mm 0.00 in0.0 mm
03:10 PM 76.0°F24.4°C 49.2°F9.6°C 39% 2.3 mph N3.7 kmh N 3.5 mph5.6 kmh 26.67 in903.2 mb - 0.00 in0.0 mm 0.00 in0.0 mm
03:15 PM 75.0°F23.9°C 48.4°F9.1°C 39% 2.3 mph N3.7 kmh N 2.3 mph3.7 kmh 26.66 in902.8 mb - 0.00 in0.0 mm 0.00 in0.0 mm
03:20 PM 75.0°F23.9°C 52.2°F11.2°C 45% 2.3 mph NW3.7 kmh NW 3.5 mph5.6 kmh 26.66 in902.8 mb - 0.00 in0.0 mm 0.00 in0.0 mm
03:25 PM 75.0°F23.9°C 51.6°F10.9°C 44% 2.3 mph NW3.7 kmh NW 3.5 mph5.6 kmh 26.66 in902.8 mb - 0.00 in0.0 mm 0.00 in0.0 mm
03:30 PM 75.0°F23.9°C 49.7°F9.8°C 41% 2.3 mph N3.7 kmh N 3.5 mph5.6 kmh 26.66 in902.8 mb - 0.00 in0.0 mm 0.00 in0.0 mm
03:35 PM 74.0°F23.3°C 48.1°F8.9°C 40% 3.5 mph N5.6 kmh N 5.8 mph9.3 kmh 26.67 in903.2 mb - 0.00 in0.0 mm 0.00 in0.0 mm
03:40 PM 73.0°F22.8°C 49.2°F9.6°C 43% 2.3 mph WSW3.7 kmh WSW 2.3 mph3.7 kmh 26.66 in902.8 mb - 0.00 in0.0 mm 0.00 in0.0 mm
03:45 PM 73.0°F22.8°C 47.9°F8.8°C 41% 1.2 mph NW1.9 kmh NW 1.2 mph1.9 kmh 26.66 in902.8 mb - 0.00 in0.0 mm 0.00 in0.0 mm
03:50 PM 73.0°F22.8°C 48.5°F9.2°C 42% 1.2 mph NW1.9 kmh NW 3.5 mph5.6 kmh 26.66 in902.8 mb - 0.00 in0.0 mm 0.00 in0.0 mm
03:55 PM 73.0°F22.8°C 48.5°F9.2°C 42% 2.3 mph WNW3.7 kmh WNW 3.5 mph5.6 kmh 26.66 in902.8 mb - 0.00 in0.0 mm 0.00 in0.0 mm
04:00 PM 73.0°F22.8°C 46.6°F8.1°C 39% 2.3 mph NE3.7 kmh NE 3.5 mph5.6 kmh 26.66 in902.8 mb - 0.00 in0.0 mm 0.00 in0.0 mm
04:10 PM 72.0°F22.2°C 46.3°F7.9°C 40% 2.3 mph N3.7 kmh N 2.3 mph3.7 kmh 26.66 in902.8 mb - 0.00 in0.0 mm 0.00 in0.0 mm
04:15 PM 73.0°F22.8°C 48.5°F9.2°C 42% 3.5 mph W5.6 kmh W 3.5 mph5.6 kmh 26.65 in902.5 mb - 0.00 in0.0 mm 0.00 in0.0 mm
04:20 PM 72.7°F22.6°C 48.3°F9.1°C 42% 2.3 mph W3.7 kmh W 3.5 mph5.6 kmh 26.65 in902.5 mb - 0.00 in0.0 mm 0.00 in0.0 mm
04:25 PM 72.0°F22.2°C 48.3°F9.1°C 43% 2.3 mph NW3.7 kmh NW 3.5 mph5.6 kmh 26.65 in902.5 mb - 0.00 in0.0 mm 0.00 in0.0 mm
04:30 PM 72.0°F22.2°C 47.6°F8.7°C 42% 2.3 mph NE3.7 kmh NE 3.5 mph5.6 kmh 26.65 in902.5 mb - 0.00 in0.0 mm 0.00 in0.0 mm
04:35 PM 72.0°F22.2°C 48.9°F9.4°C 44% 2.3 mph ENE3.7 kmh ENE 2.3 mph3.7 kmh 26.65 in902.5 mb - 0.00 in0.0 mm 0.00 in0.0 mm
04:40 PM 72.0°F22.2°C 47.6°F8.7°C 42% 2.3 mph W3.7 kmh W 2.3 mph3.7 kmh 26.65 in902.5 mb - 0.00 in0.0 mm 0.00 in0.0 mm
04:45 PM 72.0°F22.2°C 47.6°F8.7°C 42% 2.3 mph NW3.7 kmh NW 2.3 mph3.7 kmh 26.65 in902.5 mb - 0.00 in0.0 mm 0.00 in0.0 mm
04:50 PM 72.0°F22.2°C 47.6°F8.7°C 42% 2.3 mph NW3.7 kmh NW 2.3 mph3.7 kmh 26.65 in902.5 mb - 0.00 in0.0 mm 0.00 in0.0 mm
04:55 PM 72.0°F22.2°C 49.5°F9.7°C 45% 3.5 mph SW5.6 kmh SW 3.5 mph5.6 kmh 26.65 in902.5 mb - 0.00 in0.0 mm 0.00 in0.0 mm
05:00 PM 72.0°F22.2°C 48.9°F9.4°C 44% Calm Calm 1.2 mph1.9 kmh 26.65 in902.5 mb - 0.00 in0.0 mm 0.00 in0.0 mm
05:10 PM 72.0°F22.2°C 50.1°F10.1°C 46% 1.2 mph N1.9 kmh N 2.3 mph3.7 kmh 26.65 in902.5 mb - 0.00 in0.0 mm 0.00 in0.0 mm
05:15 PM 71.6°F22.0°C 49.7°F9.8°C 46% 1.2 mph N1.9 kmh N 2.3 mph3.7 kmh 26.65 in902.5 mb - 0.00 in0.0 mm 0.00 in0.0 mm
05:20 PM 71.0°F21.7°C 48.6°F9.2°C 45% 1.2 mph NNE1.9 kmh NNE 1.2 mph1.9 kmh 26.65 in902.5 mb - 0.00 in0.0 mm 0.00 in0.0 mm
05:25 PM 71.0°F21.7°C 49.7°F9.8°C 47% 2.3 mph N3.7 kmh N 2.3 mph3.7 kmh 26.65 in902.5 mb - 0.00 in0.0 mm 0.00 in0.0 mm
05:30 PM 71.0°F21.7°C 49.2°F9.6°C 46% 2.3 mph NNW3.7 kmh NNW 2.3 mph3.7 kmh 26.65 in902.5 mb - 0.00 in0.0 mm 0.00 in0.0 mm
05:35 PM 71.0°F21.7°C 49.2°F9.6°C 46% 1.2 mph NE1.9 kmh NE 1.2 mph1.9 kmh 26.65 in902.5 mb - 0.00 in0.0 mm 0.00 in0.0 mm
05:40 PM 71.0°F21.7°C 49.7°F9.8°C 47% 2.3 mph NNW3.7 kmh NNW 3.5 mph5.6 kmh 26.65 in902.5 mb - 0.00 in0.0 mm 0.00 in0.0 mm
05:45 PM 70.9°F21.6°C 49.7°F9.8°C 47% 2.3 mph NNW3.7 kmh NNW 3.5 mph5.6 kmh 26.65 in902.5 mb - 0.00 in0.0 mm 0.00 in0.0 mm
05:50 PM 70.0°F21.1°C 49.4°F9.7°C 48% 2.3 mph N3.7 kmh N 2.3 mph3.7 kmh 26.65 in902.5 mb - 0.00 in0.0 mm 0.00 in0.0 mm
05:55 PM 70.0°F21.1°C 50.5°F10.3°C 50% 1.2 mph WSW1.9 kmh WSW 2.3 mph3.7 kmh 26.64 in902.1 mb - 0.00 in0.0 mm 0.00 in0.0 mm
06:00 PM 70.0°F21.1°C 50.0°F10.0°C 49% 2.3 mph NNE3.7 kmh NNE 2.3 mph3.7 kmh 26.65 in902.5 mb - 0.00 in0.0 mm 0.00 in0.0 mm
06:10 PM 69.4°F20.8°C 49.9°F9.9°C 50% 1.2 mph W1.9 kmh W 3.5 mph5.6 kmh 26.65 in902.5 mb - 0.00 in0.0 mm 0.00 in0.0 mm
06:15 PM 69.0°F20.6°C 50.6°F10.3°C 52% 1.2 mph NW1.9 kmh NW 1.2 mph1.9 kmh 26.65 in902.5 mb - 0.00 in0.0 mm 0.00 in0.0 mm
06:20 PM 69.0°F20.6°C 50.1°F10.1°C 51% 1.2 mph WSW1.9 kmh WSW 2.3 mph3.7 kmh 26.65 in902.5 mb - 0.00 in0.0 mm 0.00 in0.0 mm
06:25 PM 68.0°F20.0°C 49.7°F9.8°C 52% Calm Calm 1.2 mph1.9 kmh 26.66 in902.8 mb - 0.00 in0.0 mm 0.00 in0.0 mm
06:30 PM 68.0°F20.0°C 51.2°F10.7°C 55% Calm Calm 1.2 mph1.9 kmh 26.66 in902.8 mb - 0.00 in0.0 mm 0.00 in0.0 mm
06:35 PM 68.0°F20.0°C 51.7°F10.9°C 56% Calm Calm -- 26.66 in902.8 mb - 0.00 in0.0 mm 0.00 in0.0 mm
06:40 PM 67.6°F19.8°C 51.8°F11.0°C 57% Calm Calm -- 26.66 in902.8 mb - 0.00 in0.0 mm 0.00 in0.0 mm
06:45 PM 66.0°F18.9°C 52.2°F11.2°C 61% Calm Calm -- 26.66 in902.8 mb - 0.00 in0.0 mm 0.00 in0.0 mm
06:50 PM 65.0°F18.3°C 50.8°F10.4°C 60% Calm Calm -- 26.66 in902.8 mb - 0.00 in0.0 mm 0.00 in0.0 mm
06:55 PM 66.0°F18.9°C 53.9°F12.2°C 65% Calm Calm -- 26.67 in903.2 mb - 0.00 in0.0 mm 0.00 in0.0 mm
07:00 PM 65.0°F18.3°C 51.2°F10.7°C 61% Calm Calm -- 26.67 in903.2 mb - 0.00 in0.0 mm 0.00 in0.0 mm
07:10 PM 65.0°F18.3°C 52.1°F11.2°C 63% Calm Calm -- 26.67 in903.2 mb - 0.00 in0.0 mm 0.00 in0.0 mm
07:15 PM 65.0°F18.3°C 52.5°F11.4°C 64% Calm Calm -- 26.67 in903.2 mb - 0.00 in0.0 mm 0.00 in0.0 mm
07:20 PM 64.0°F17.8°C 51.1°F10.6°C 63% Calm Calm -- 26.67 in903.2 mb - 0.00 in0.0 mm 0.00 in0.0 mm
07:25 PM 64.0°F17.8°C 51.1°F10.6°C 63% Calm Calm -- 26.67 in903.2 mb - 0.00 in0.0 mm 0.00 in0.0 mm
07:30 PM 64.0°F17.8°C 53.2°F11.8°C 68% Calm Calm -- 26.67 in903.2 mb - 0.00 in0.0 mm 0.00 in0.0 mm
07:35 PM 64.0°F17.8°C 52.0°F11.1°C 65% Calm Calm -- 26.67 in903.2 mb - 0.00 in0.0 mm 0.00 in0.0 mm
07:40 PM 64.0°F17.8°C 51.1°F10.6°C 63% Calm Calm -- 26.67 in903.2 mb - 0.00 in0.0 mm 0.00 in0.0 mm
07:45 PM 64.0°F17.8°C 50.7°F10.4°C 62% Calm Calm -- 26.67 in903.2 mb - 0.00 in0.0 mm 0.00 in0.0 mm
07:50 PM 63.0°F17.2°C 48.0°F8.9°C 58% Calm Calm -- 26.68 in903.5 mb - 0.00 in0.0 mm 0.00 in0.0 mm
07:55 PM 62.0°F16.7°C 49.7°F9.8°C 64% Calm Calm -- 26.67 in903.2 mb - 0.00 in0.0 mm 0.00 in0.0 mm
08:00 PM 62.0°F16.7°C 48.8°F9.3°C 62% Calm Calm -- 26.68 in903.5 mb - 0.00 in0.0 mm 0.00 in0.0 mm
08:10 PM 62.0°F16.7°C 50.9°F10.5°C 67% Calm Calm -- 26.68 in903.5 mb - 0.00 in0.0 mm 0.00 in0.0 mm
08:15 PM 61.0°F16.1°C 50.8°F10.4°C 69% Calm Calm -- 26.68 in903.5 mb - 0.00 in0.0 mm 0.00 in0.0 mm
08:20 PM 61.0°F16.1°C 50.8°F10.4°C 69% Calm Calm -- 26.69 in903.8 mb - 0.00 in0.0 mm 0.00 in0.0 mm
08:25 PM 60.0°F15.6°C 49.0°F9.4°C 67% Calm Calm -- 26.69 in903.8 mb - 0.00 in0.0 mm 0.00 in0.0 mm
08:30 PM 60.8°F16.0°C 50.6°F10.3°C 69% Calm Calm -- 26.69 in903.8 mb - 0.00 in0.0 mm 0.00 in0.0 mm
08:35 PM 61.0°F16.1°C 51.1°F10.6°C 70% Calm Calm -- 26.69 in903.8 mb - 0.00 in0.0 mm 0.00 in0.0 mm
08:40 PM 60.0°F15.6°C 50.6°F10.3°C 71% Calm Calm -- 26.70 in904.2 mb - 0.00 in0.0 mm 0.00 in0.0 mm
08:45 PM 60.0°F15.6°C 50.6°F10.3°C 71% Calm Calm -- 26.70 in904.2 mb - 0.00 in0.0 mm 0.00 in0.0 mm
08:50 PM 60.0°F15.6°C 50.6°F10.3°C 71% Calm Calm -- 26.70 in904.2 mb - 0.00 in0.0 mm 0.00 in0.0 mm
08:55 PM 59.0°F15.0°C 50.4°F10.2°C 73% Calm Calm -- 26.70 in904.2 mb - 0.00 in0.0 mm 0.00 in0.0 mm
09:00 PM 59.0°F15.0°C 50.0°F10.0°C 72% Calm Calm -- 26.71 in904.5 mb - 0.00 in0.0 mm 0.00 in0.0 mm
09:10 PM 58.0°F14.4°C 49.4°F9.7°C 73% Calm Calm -- 26.71 in904.5 mb - 0.00 in0.0 mm 0.00 in0.0 mm
09:15 PM 59.0°F15.0°C 50.4°F10.2°C 73% Calm Calm -- 26.71 in904.5 mb - 0.00 in0.0 mm 0.00 in0.0 mm
09:20 PM 59.0°F15.0°C 51.1°F10.6°C 75% Calm Calm -- 26.71 in904.5 mb - 0.00 in0.0 mm 0.00 in0.0 mm
09:25 PM 58.0°F14.4°C 50.5°F10.3°C 76% Calm Calm -- 26.72 in904.8 mb - 0.00 in0.0 mm 0.00 in0.0 mm
09:30 PM 64.0°F17.8°C 54.4°F12.4°C 71% Calm Calm -- 26.67 in903.2 mb - 0.00 in0.0 mm 0.00 in0.0 mm
09:35 PM 58.8°F14.9°C 45.8°F7.7°C 62% Calm Calm -- 26.71 in904.5 mb - 0.00 in0.0 mm 0.00 in0.0 mm
09:40 PM 57.0°F13.9°C 50.2°F10.1°C 78% Calm Calm -- 26.72 in904.8 mb - 0.00 in0.0 mm 0.00 in0.0 mm
09:45 PM 57.0°F13.9°C 50.5°F10.3°C 79% Calm Calm -- 26.72 in904.8 mb - 0.00 in0.0 mm 0.00 in0.0 mm
09:50 PM 57.0°F13.9°C 49.9°F9.9°C 77% Calm Calm -- 26.72 in904.8 mb - 0.00 in0.0 mm 0.00 in0.0 mm
09:55 PM 57.0°F13.9°C 49.9°F9.9°C 77% Calm Calm -- 26.72 in904.8 mb - 0.00 in0.0 mm 0.00 in0.0 mm
10:00 PM 57.0°F13.9°C 50.5°F10.3°C 79% Calm Calm -- 26.72 in904.8 mb - 0.00 in0.0 mm 0.00 in0.0 mm
10:10 PM 57.0°F13.9°C 50.5°F10.3°C 79% Calm Calm -- 26.73 in905.2 mb - 0.00 in0.0 mm 0.00 in0.0 mm
10:15 PM 57.0°F13.9°C 50.9°F10.5°C 80% Calm Calm -- 26.73 in905.2 mb - 0.00 in0.0 mm 0.00 in0.0 mm
10:20 PM 57.0°F13.9°C 50.5°F10.3°C 79% Calm Calm -- 26.73 in905.2 mb - 0.00 in0.0 mm 0.00 in0.0 mm
10:25 PM 57.0°F13.9°C 50.5°F10.3°C 79% Calm Calm -- 26.72 in904.8 mb - 0.00 in0.0 mm 0.00 in0.0 mm
10:30 PM 56.0°F13.3°C 48.9°F9.4°C 77% Calm Calm -- 26.73 in905.2 mb - 0.00 in0.0 mm 0.00 in0.0 mm
10:35 PM 56.0°F13.3°C 49.6°F9.8°C 79% Calm Calm -- 26.72 in904.8 mb - 0.00 in0.0 mm 0.00 in0.0 mm
10:40 PM 56.0°F13.3°C 49.9°F9.9°C 80% Calm Calm -- 26.72 in904.8 mb - 0.00 in0.0 mm 0.00 in0.0 mm
10:45 PM 56.0°F13.3°C 49.9°F9.9°C 80% Calm Calm -- 26.72 in904.8 mb - 0.00 in0.0 mm 0.00 in0.0 mm
10:50 PM 56.0°F13.3°C 49.6°F9.8°C 79% Calm Calm -- 26.73 in905.2 mb - 0.00 in0.0 mm 0.00 in0.0 mm
10:55 PM 56.0°F13.3°C 48.5°F9.2°C 76% Calm Calm -- 26.73 in905.2 mb - 0.00 in0.0 mm 0.00 in0.0 mm
11:00 PM 56.0°F13.3°C 48.5°F9.2°C 76% Calm Calm -- 26.73 in905.2 mb - 0.00 in0.0 mm 0.00 in0.0 mm
11:10 PM 55.0°F12.8°C 48.3°F9.1°C 78% Calm Calm -- 26.73 in905.2 mb - 0.00 in0.0 mm 0.00 in0.0 mm
11:15 PM 55.0°F12.8°C 48.6°F9.2°C 79% Calm Calm -- 26.74 in905.5 mb - 0.00 in0.0 mm 0.00 in0.0 mm
11:20 PM 54.7°F12.6°C 48.3°F9.1°C 79% Calm Calm -- 26.74 in905.5 mb - 0.00 in0.0 mm 0.00 in0.0 mm
11:25 PM 54.0°F12.2°C 48.0°F8.9°C 80% Calm Calm -- 26.73 in905.2 mb - 0.00 in0.0 mm 0.00 in0.0 mm
11:30 PM 54.0°F12.2°C 48.0°F8.9°C 80% Calm Calm -- 26.73 in905.2 mb - 0.00 in0.0 mm 0.00 in0.0 mm
11:35 PM 54.0°F12.2°C 49.0°F9.4°C 83% Calm Calm -- 26.73 in905.2 mb - 0.00 in0.0 mm 0.00 in0.0 mm
11:40 PM 54.0°F12.2°C 49.0°F9.4°C 83% Calm Calm -- 26.73 in905.2 mb - 0.00 in0.0 mm 0.00 in0.0 mm
11:45 PM 54.0°F12.2°C 48.3°F9.1°C 81% Calm Calm -- 26.73 in905.2 mb - 0.00 in0.0 mm 0.00 in0.0 mm
11:50 PM 53.8°F12.1°C 48.1°F8.9°C 81% Calm Calm -- 26.73 in905.2 mb - 0.00 in0.0 mm 0.00 in0.0 mm
11:55 PM 53.0°F11.7°C 48.0°F8.9°C 83% Calm Calm -- 26.74 in905.5 mb - 0.00 in0.0 mm 0.00 in0.0 mm